createdAt,value
2019-03-23T00:00:34.207Z,96472.69
2019-03-23T00:03:04.131Z,96473.82
2019-03-23T00:05:33.869Z,96463.16
2019-03-23T00:08:03.709Z,96468.26
2019-03-23T00:10:33.438Z,96464.37
2019-03-23T00:13:03.244Z,96468.68
2019-03-23T00:15:32.966Z,96467.75
2019-03-23T00:18:03.033Z,96461.00
2019-03-23T00:20:32.773Z,96462.53
2019-03-23T00:23:02.554Z,96462.43
2019-03-23T06:16:12.499Z,96471.64
2019-03-23T06:18:42.236Z,96477.78
2019-03-23T06:21:12.011Z,96476.81
2019-03-23T06:23:41.750Z,96477.70
2019-03-23T06:26:11.674Z,96473.44
2019-03-23T06:28:41.411Z,96475.45
2019-03-23T06:31:11.225Z,96473.59
2019-03-23T06:33:40.968Z,96476.59
2019-03-23T06:36:10.713Z,96469.94
2019-03-23T06:38:40.776Z,96465.17
2019-03-23T06:41:10.500Z,96472.83
2019-03-23T06:43:40.310Z,96469.80
2019-03-23T06:46:10.034Z,96470.39
2019-03-23T06:48:39.820Z,96471.58
2019-03-23T06:51:09.572Z,96467.16
2019-03-23T06:53:40.165Z,96470.39
2019-03-23T06:56:09.910Z,96474.23
2019-03-23T06:58:39.694Z,96474.86
2019-03-23T07:01:09.433Z,96471.76
2019-03-23T07:03:39.256Z,96473.83
2019-03-23T07:06:08.987Z,96472.41
2019-03-23T07:08:39.012Z,96473.92
2019-03-23T07:11:08.846Z,96479.83
2019-03-23T07:13:38.585Z,96473.84
2019-03-23T07:16:08.392Z,96480.22
2019-03-23T07:18:38.129Z,96483.40
2019-03-23T07:21:07.917Z,96485.45
2019-03-23T07:23:37.933Z,96479.50
2019-03-23T07:26:08.007Z,96481.16
2019-03-23T07:28:38.066Z,96481.05
2019-03-23T07:31:07.884Z,96473.23
2019-03-23T07:33:37.637Z,96478.20
2019-03-23T07:36:07.424Z,96469.80
2019-03-23T07:38:37.439Z,96469.77
2019-03-23T07:41:07.244Z,96473.98
2019-03-23T07:43:36.985Z,96475.36
2019-03-23T07:46:06.783Z,96462.90
2019-03-23T07:48:36.519Z,96469.94
2019-03-23T07:51:06.326Z,96469.39
2019-03-23T07:53:36.057Z,96471.47
2019-03-23T07:56:05.856Z,96469.83
2019-03-23T07:58:35.879Z,96466.31
2019-03-23T08:01:05.956Z,96471.22
2019-03-23T08:03:35.694Z,96467.19
2019-03-23T08:06:05.501Z,96471.67
2019-03-23T08:08:35.242Z,96470.75
2019-03-23T08:11:05.074Z,96471.59
2019-03-23T08:13:34.815Z,96467.98
2019-03-23T08:16:04.588Z,96469.53
2019-03-23T08:18:34.325Z,96465.44
2019-03-23T08:21:04.130Z,96461.61
2019-03-23T08:23:33.863Z,96469.01
2019-03-23T08:26:03.935Z,96473.03
2019-03-23T08:28:33.669Z,96470.20
2019-03-23T08:31:03.459Z,96466.03
2019-03-23T08:33:33.198Z,96466.65
2019-03-23T08:36:02.939Z,96469.38
2019-03-23T08:38:32.728Z,96466.75
2019-03-23T08:41:02.469Z,96470.42
2019-03-23T08:43:32.529Z,96467.24
2019-03-23T08:46:02.532Z,96459.98
2019-03-23T08:48:32.324Z,96462.34
2019-03-23T08:51:02.061Z,96463.17
2019-03-23T08:53:31.858Z,96471.33
2019-03-23T08:56:01.610Z,96461.30
2019-03-23T08:58:30.094Z,96460.59
2019-03-23T09:01:00.556Z,96463.55
2019-03-23T09:03:30.667Z,96467.20
2019-03-23T09:06:00.437Z,96461.92
2019-03-23T09:08:30.192Z,96461.40
2019-03-23T09:11:00.034Z,96460.05
2019-03-23T09:13:39.986Z,96456.69
2019-03-23T09:16:01.315Z,96461.83
2019-03-23T09:18:31.035Z,96462.15
2019-03-23T09:21:00.830Z,96455.88
2019-03-23T09:23:30.570Z,96456.24
2019-03-23T09:26:00.392Z,96450.27
2019-03-23T09:28:30.144Z,96452.55
2019-03-23T09:30:59.935Z,96453.89
2019-03-23T09:33:29.694Z,96449.97
2019-03-23T09:35:59.500Z,96445.41
2019-03-23T09:38:29.254Z,96442.00
2019-03-23T09:40:59.358Z,96445.73
2019-03-23T09:43:29.114Z,96440.34
2019-03-23T09:45:59.290Z,96448.13
2019-03-23T09:48:29.319Z,96445.17
2019-03-23T09:50:59.122Z,96440.81
2019-03-23T09:53:28.862Z,96448.78
2019-03-23T09:55:58.946Z,96438.52
2019-03-23T09:58:28.692Z,96442.55
2019-03-23T10:00:58.493Z,96446.94
2019-03-23T10:03:28.225Z,96437.86
2019-03-23T10:05:58.018Z,96431.20
2019-03-23T10:08:27.758Z,96428.97
2019-03-23T10:10:57.621Z,96418.16
2019-03-23T10:13:27.701Z,96424.86
2019-03-23T10:15:58.087Z,96424.19
2019-03-23T10:18:27.851Z,96426.75
2019-03-23T10:20:57.682Z,96416.84
2019-03-23T10:23:27.443Z,96417.42
2019-03-23T10:25:57.195Z,96411.56
2019-03-23T10:28:26.991Z,96412.48
2019-03-23T10:30:56.722Z,96410.06
2019-03-23T10:33:26.532Z,96407.49
2019-03-23T10:35:56.387Z,96404.70
2019-03-23T10:38:26.188Z,96400.02
2019-03-23T10:40:55.941Z,96409.34
2019-03-23T10:43:26.011Z,96404.07
2019-03-23T10:45:55.754Z,96402.76
2019-03-23T10:48:25.816Z,96402.07
2019-03-23T10:50:55.563Z,96396.00
2019-03-23T10:53:25.383Z,96398.67
2019-03-23T10:55:55.138Z,96400.77
2019-03-23T10:58:24.957Z,96395.81
2019-03-23T11:00:54.716Z,96391.70
2019-03-23T11:03:24.535Z,96391.11
2019-03-23T11:05:54.294Z,96395.59
2019-03-23T11:08:24.106Z,96387.29
2019-03-23T11:10:53.845Z,96385.69
2019-03-23T11:13:23.699Z,96383.39
2019-03-23T11:15:53.441Z,96383.09
2019-03-23T11:18:23.256Z,96378.94
2019-03-23T11:20:53.014Z,96378.94
2019-03-23T11:23:22.819Z,96373.45
2019-03-23T11:25:52.625Z,96370.13
2019-03-23T11:28:22.641Z,96367.61
2019-03-23T11:30:52.433Z,96372.20
2019-03-23T11:33:22.200Z,96365.03
2019-03-23T11:35:57.768Z,96369.48
2019-03-23T11:38:23.480Z,96361.19
2019-03-23T11:40:55.248Z,96360.89
2019-03-23T11:43:24.743Z,96357.79
2019-03-23T11:45:54.554Z,96352.95
2019-03-23T11:48:24.288Z,96355.73
2019-03-23T11:50:54.377Z,96355.73
2019-03-23T11:53:24.135Z,96345.44
2019-03-23T11:55:53.956Z,96344.19
2019-03-23T11:58:23.824Z,96349.34
2019-03-23T12:00:53.885Z,96337.78
2019-03-23T12:03:23.640Z,96327.53
2019-03-23T12:05:53.423Z,96324.12
2019-03-23T12:08:23.168Z,96324.12
2019-03-23T12:11:02.506Z,96324.69
2019-03-23T12:13:24.486Z,96322.52
2019-03-23T12:15:54.272Z,96329.77
2019-03-23T12:18:24.003Z,96327.77
2019-03-23T12:20:53.786Z,96327.77
2019-03-23T12:23:23.519Z,96328.66
2019-03-23T12:25:53.610Z,96323.05
2019-03-23T12:28:23.339Z,96329.22
2019-03-23T12:30:53.419Z,96321.26
2019-03-23T12:33:23.159Z,96324.06
2019-03-23T12:35:52.968Z,96321.11
2019-03-23T12:38:22.707Z,96311.43
2019-03-23T12:40:52.507Z,96322.14
2019-03-23T12:43:22.522Z,96315.27
2019-03-23T12:48:28.075Z,96316.94
2019-03-23T12:50:57.902Z,96313.88
2019-03-23T12:53:27.955Z,96310.45
2019-03-23T12:55:57.777Z,96302.77
2019-03-23T12:58:27.515Z,96296.48
2019-03-23T13:00:57.329Z,96295.88
2019-03-23T13:03:27.103Z,96297.20
2019-03-23T13:05:56.833Z,96293.21
2019-03-23T13:08:26.632Z,96286.44
2019-03-23T13:10:56.367Z,96293.92
2019-03-23T13:13:26.218Z,96291.45
2019-03-23T13:15:55.962Z,96293.33
2019-03-23T13:18:27.271Z,96287.43
2019-03-23T13:20:57.269Z,96289.27
2019-03-23T13:23:27.060Z,96286.27
2019-03-23T13:25:57.082Z,96284.84
2019-03-23T13:28:27.246Z,96290.78
2019-03-23T13:30:57.013Z,96288.98
2019-03-23T13:33:26.789Z,96281.91
2019-03-23T13:35:56.541Z,96275.42
2019-03-23T13:38:26.335Z,96273.45
2019-03-23T13:40:56.065Z,96264.48
2019-03-23T13:43:25.854Z,96262.36
2019-03-23T13:45:55.854Z,96266.63
2019-03-23T13:48:26.004Z,96262.70
2019-03-23T13:50:55.735Z,96265.09
2019-03-23T13:53:25.813Z,96261.08
2019-03-23T13:55:55.548Z,96256.66
2019-03-23T13:58:25.328Z,96257.06
2019-03-23T14:00:55.070Z,96252.88
2019-03-23T14:03:25.138Z,96254.43
2019-03-23T14:05:54.869Z,96252.66
2019-03-23T14:08:24.663Z,96254.20
2019-03-23T14:10:54.395Z,96248.64
2019-03-23T14:13:24.228Z,96254.78
2019-03-23T14:15:53.961Z,96249.09
2019-03-23T14:18:23.749Z,96256.34
2019-03-23T14:20:53.495Z,96250.58
2019-03-23T14:23:23.270Z,96249.26
2019-03-23T14:25:53.277Z,96246.13
2019-03-23T14:28:23.088Z,96245.98
2019-03-23T14:30:52.867Z,96236.72
2019-03-23T14:33:22.675Z,96245.30
2019-03-23T14:35:52.466Z,96240.34
2019-03-23T14:38:22.276Z,96241.67
2019-03-23T14:40:52.027Z,96233.59
2019-03-23T14:43:21.830Z,96239.58
2019-03-23T14:45:51.558Z,96241.48
2019-03-23T14:48:21.360Z,96236.44
2019-03-23T14:50:51.135Z,96240.92
2019-03-23T14:53:20.949Z,96236.92
2019-03-23T14:55:50.714Z,96233.94
2019-03-23T14:58:20.517Z,96233.17
2019-03-23T15:00:50.279Z,96231.48
2019-03-23T15:03:20.057Z,96224.08
2019-03-23T15:05:50.092Z,96233.52
2019-03-23T15:08:19.895Z,96232.98
2019-03-23T15:10:49.643Z,96231.28
2019-03-23T15:13:19.437Z,96227.52
2019-03-23T15:15:49.495Z,96227.70
2019-03-23T15:18:19.251Z,96223.80
2019-03-23T15:20:49.313Z,96226.94
2019-03-23T15:23:19.059Z,96230.86
2019-03-23T15:25:48.981Z,96229.87
2019-03-23T15:28:18.712Z,96223.13
2019-03-23T15:30:48.508Z,96221.95
2019-03-23T15:33:18.260Z,96229.80
2019-03-23T15:35:48.983Z,96221.89
2019-03-23T15:38:18.786Z,96214.39
2019-03-23T15:40:48.595Z,96220.19
2019-03-23T15:43:18.348Z,96220.69
2019-03-23T15:45:48.421Z,96215.74
2019-03-23T15:48:18.175Z,96220.48
2019-03-23T15:50:47.967Z,96216.22
2019-03-23T15:53:17.697Z,96217.40
2019-03-23T15:55:47.492Z,96217.95
2019-03-23T15:58:17.543Z,96219.34
2019-03-23T16:00:47.613Z,96216.06
2019-03-23T16:03:17.635Z,96212.52
2019-03-23T16:05:47.716Z,96209.11
2019-03-23T16:08:17.725Z,96206.09
2019-03-23T16:10:47.506Z,96211.39
2019-03-23T16:13:17.319Z,96208.42
2019-03-23T16:15:47.383Z,96215.14
2019-03-23T16:18:17.144Z,96214.84
2019-03-23T16:20:46.949Z,96214.73
2019-03-23T16:23:16.691Z,96217.36
2019-03-23T16:25:46.506Z,96219.13
2019-03-23T16:28:16.281Z,96216.77
2019-03-23T16:30:46.026Z,96217.77
2019-03-23T16:33:15.821Z,96217.79
2019-03-23T16:35:45.559Z,96222.00
2019-03-23T16:38:15.358Z,96223.53
2019-03-23T16:40:45.098Z,96229.70
2019-03-23T16:43:14.880Z,96237.27
2019-03-23T16:45:44.624Z,96224.23
2019-03-23T16:48:14.433Z,96229.92
2019-03-23T16:50:44.755Z,96236.16
2019-03-23T16:53:14.547Z,96234.33
2019-03-23T16:55:44.269Z,96233.52
2019-03-23T16:58:16.384Z,96232.62
2019-03-23T17:00:45.852Z,96244.16
2019-03-23T17:03:15.643Z,96240.51
2019-03-23T17:05:45.389Z,96236.20
2019-03-23T17:08:15.399Z,96241.70
2019-03-23T17:10:45.202Z,96235.03
2019-03-23T17:13:14.985Z,96237.77
2019-03-23T17:15:44.808Z,96240.31
2019-03-23T17:18:14.534Z,96244.30
2019-03-23T17:20:44.321Z,96241.58
2019-03-23T17:23:14.181Z,96248.88
2019-03-23T17:25:43.972Z,96250.43
2019-03-23T17:28:13.710Z,96246.18
2019-03-23T17:30:43.781Z,96247.16
2019-03-23T17:33:13.519Z,96254.92
2019-03-23T17:35:43.331Z,96252.86
2019-03-23T17:38:15.138Z,96258.05
2019-03-23T17:40:45.362Z,96252.02
2019-03-23T17:43:15.107Z,96250.42
2019-03-23T17:45:44.896Z,96251.30
2019-03-23T17:48:14.898Z,96252.54
2019-03-23T17:53:20.824Z,96257.20
2019-03-23T17:55:50.690Z,96258.27
2019-03-23T17:58:20.750Z,96259.41
2019-03-23T18:00:50.609Z,96259.17
2019-03-23T18:03:20.767Z,96263.56
2019-03-23T18:05:50.642Z,96263.56
2019-03-23T18:08:20.438Z,96268.03
2019-03-23T18:10:50.319Z,96264.78
2019-03-23T18:13:20.475Z,96277.44
2019-03-23T18:15:50.602Z,96277.39
2019-03-23T18:18:20.575Z,96275.51
2019-03-23T18:20:50.328Z,96271.31
2019-03-23T18:23:20.146Z,96277.34
2019-03-23T18:25:49.895Z,96284.59
2019-03-23T18:28:19.715Z,96285.69
2019-03-23T18:30:49.501Z,96288.67
2019-03-23T18:33:19.381Z,96282.11
2019-03-23T18:35:49.415Z,96288.25
2019-03-23T18:38:19.209Z,96289.50
2019-03-23T18:40:48.951Z,96301.46
2019-03-23T18:43:27.002Z,96300.32
2019-03-23T18:45:50.223Z,96299.42
2019-03-23T18:48:20.028Z,96308.33
2019-03-23T18:50:49.794Z,96302.75
2019-03-23T18:53:20.322Z,96306.59
2019-03-23T18:55:50.188Z,96305.14
2019-03-23T18:58:20.021Z,96314.59
2019-03-23T19:00:49.848Z,96315.72
2019-03-23T19:03:19.855Z,96315.72
2019-03-23T19:05:49.651Z,96316.92
2019-03-23T19:08:19.389Z,96318.16
2019-03-23T19:10:49.189Z,96315.44
2019-03-23T19:13:19.266Z,96316.34
2019-03-23T19:15:49.595Z,96315.36
2019-03-23T19:18:19.707Z,96321.80
2019-03-23T19:20:49.449Z,96319.55
2019-03-23T19:23:19.268Z,96322.52
2019-03-23T19:25:49.005Z,96320.58
2019-03-23T19:28:19.084Z,96321.30
2019-03-23T19:30:48.845Z,96316.80
2019-03-23T19:33:18.670Z,96319.27
2019-03-23T19:35:48.433Z,96313.81
2019-03-23T19:38:18.360Z,96320.20
2019-03-23T19:40:48.107Z,96314.66
2019-03-23T19:43:17.894Z,96318.13
2019-03-23T19:45:47.653Z,96319.36
2019-03-23T19:48:17.770Z,96322.26
2019-03-23T19:50:47.511Z,96324.38
2019-03-23T19:53:17.347Z,96324.98
2019-03-23T19:55:47.095Z,96329.07
2019-03-23T19:58:16.882Z,96326.98
2019-03-23T20:00:46.626Z,96332.59
2019-03-23T20:03:19.040Z,96330.87
2019-03-23T20:05:48.391Z,96333.13
2019-03-23T20:08:18.213Z,96337.90
2019-03-23T20:10:48.260Z,96333.36
2019-03-23T20:13:18.121Z,96338.08
2019-03-23T20:15:47.871Z,96332.12
2019-03-23T20:18:17.658Z,96335.01
2019-03-23T20:20:47.403Z,96338.33
2019-03-23T20:23:17.215Z,96338.72
2019-03-23T20:25:46.976Z,96329.13
2019-03-23T20:28:16.996Z,96336.38
2019-03-23T20:30:46.795Z,96337.13
2019-03-23T20:33:19.572Z,96333.30
2019-03-23T20:35:48.348Z,96335.45
2019-03-23T20:38:18.124Z,96339.92
2019-03-23T20:40:47.925Z,96340.03
2019-03-23T20:43:17.659Z,96335.87
2019-03-23T20:45:47.564Z,96338.76
2019-03-23T20:48:17.727Z,96337.59
2019-03-23T20:50:47.818Z,96330.52
2019-03-23T20:53:18.762Z,96328.47
2019-03-23T20:55:48.640Z,96329.07
2019-03-23T20:58:18.506Z,96335.14
2019-03-23T21:00:48.244Z,96335.37
2019-03-23T21:03:18.035Z,96327.66
2019-03-23T21:05:47.773Z,96330.41
2019-03-23T21:08:17.561Z,96330.75
2019-03-23T21:10:47.310Z,96330.52
2019-03-23T21:13:17.122Z,96324.24
2019-03-23T21:15:46.894Z,96324.01
2019-03-23T21:20:51.756Z,96325.78
2019-03-23T21:23:21.995Z,96328.55
2019-03-23T21:25:51.744Z,96319.64
2019-03-23T21:28:21.928Z,96324.38
2019-03-23T21:30:51.668Z,96321.43
2019-03-23T21:33:21.706Z,96320.83
2019-03-23T21:35:51.463Z,96319.65
2019-03-23T21:38:21.196Z,96312.80
2019-03-23T21:40:50.983Z,96308.51
2019-03-23T21:43:20.730Z,96308.89
2019-03-23T21:48:26.172Z,96306.23
2019-03-23T21:50:55.979Z,96307.68
2019-03-23T21:53:26.004Z,96309.94
2019-03-23T21:55:55.975Z,96306.98
2019-03-23T21:58:25.716Z,96299.70
2019-03-23T22:00:55.858Z,96304.34
2019-03-23T22:03:25.713Z,96308.49
2019-03-23T22:05:55.869Z,96303.28
2019-03-23T22:08:25.603Z,96300.06
2019-03-23T22:10:55.402Z,96296.85
2019-03-23T22:13:25.983Z,96296.40
2019-03-23T22:15:55.824Z,96290.22
2019-03-23T22:18:25.567Z,96293.44
2019-03-23T22:20:55.358Z,96290.83
2019-03-23T22:23:25.081Z,96289.37
2019-03-23T22:25:54.876Z,96285.23
2019-03-23T22:28:24.608Z,96286.65
2019-03-23T22:30:54.678Z,96279.30
2019-03-23T22:33:24.699Z,96287.38
2019-03-23T22:35:54.814Z,96283.20
2019-03-23T22:38:24.588Z,96282.75
2019-03-23T22:40:54.518Z,96278.33
2019-03-23T22:43:24.281Z,96277.03
2019-03-23T22:45:54.071Z,96280.24
2019-03-23T22:48:23.817Z,96284.62
2019-03-23T22:50:53.912Z,96282.47
2019-03-23T22:53:23.935Z,96282.23
2019-03-23T22:55:53.741Z,96275.24
2019-03-23T22:58:23.483Z,96276.64
2019-03-23T23:00:54.677Z,96272.73
2019-03-23T23:03:24.728Z,96275.22
2019-03-23T23:05:54.831Z,96271.63
2019-03-23T23:08:24.904Z,96273.73
2019-03-23T23:10:54.853Z,96271.22
2019-03-23T23:13:25.203Z,96265.97
2019-03-23T23:15:55.041Z,96263.61
2019-03-23T23:18:25.110Z,96261.09
2019-03-23T23:20:55.216Z,96256.47
2019-03-23T23:23:25.026Z,96252.43
